Elettra — H9AK — position and weather

sailwx.info

Track history (hours):
 
Tides and Currents Weather Stations Pressure Air Temp Water Temp Dewpoint Dewpoint Depression Visibility Wind Speed Wind Dir Waves Ship Positions

Elettra

Last reported at 2018-Apr-17 00:44 UTC. Time now 2018-Apr-25 20:24 UTC.
Position S 27°31' E 153°52'.
Warning: this ship's position is 8 days out of date.

Length 254 m; draft 13.5 m.

Type: Cargo ship. MMSI: 371188000.

Date/timePositionNaut miles runAvg speedWind from/ knotsBaromVisibWave heightAir tempDewpointWater temp
2018-Apr-17 00:44S 27°31' E 153°52'1011.0
2018-Apr-16 23:48S 27°41' E 153°52'310.8
2018-Apr-16 23:30S 27°45' E 153°52'510.6
2018-Apr-16 23:00S 27°50' E 153°53'510.4
2018-Apr-16 22:30S 27°55' E 153°53'510.5
2018-Apr-16 22:00S 28°01' E 153°53'510.6
2018-Apr-16 21:31S 28°06' E 153°53'510.8
2018-Apr-16 21:00S 28°11' E 153°53'510.6
2018-Apr-16 20:30S 28°16' E 153°53'510.5
2018-Apr-16 20:00S 28°22' E 153°52'510.6
2018-Apr-16 19:30S 28°27' E 153°52'510.3
2018-Apr-16 19:00S 28°32' E 153°52'510.2
2018-Apr-16 18:30S 28°37' E 153°52'5 9.9
2018-Apr-16 18:00S 28°42' E 153°52'510.2
2018-Apr-16 17:29S 28°47' E 153°52'227 9.1
2018-Apr-15 16:39S 32°29' E 152°52'1 8.8
2018-Apr-15 16:30S 32°30' E 152°52'4 8.7
2018-Apr-15 16:00S 32°34' E 152°51'4 8.7
2018-Apr-15 15:30S 32°38' E 152°49'4 8.7
2018-Apr-15 15:00S 32°41' E 152°45'510.1
2018-Apr-15 14:30S 32°44' E 152°40'611.6
2018-Apr-15 14:00S 32°47' E 152°34'612.3
2018-Apr-15 13:30S 32°50' E 152°28'612.4
2018-Apr-15 13:00S 32°52' E 152°21'612.5
2018-Apr-15 12:30S 32°54' E 152°14'612.7
2018-Apr-15 12:00S 32°55' E 152°07'612.0
2018-Apr-15 11:30S 32°57' E 151°60'510.5
2018-Apr-15 11:00S 32°57' E 151°53'4 7.3
2018-Apr-15 10:29S 32°55' E 151°49'2 4.3
2018-Apr-15 10:00S 32°55' E 151°47'2 3.5
2018-Apr-15 09:30S 32°54' E 151°46'0 1.0
2018-Apr-15 09:00S 32°53' E 151°46'0 0.0
2018-Apr-15 08:27S 32°53' E 151°46'0 0.0
2018-Apr-15 08:00S 32°53' E 151°46'0 0.0
2018-Apr-15 07:30S 32°53' E 151°46'0 0.0
2018-Apr-15 07:00S 32°53' E 151°46'0 0.0
2018-Apr-15 06:30S 32°53' E 151°46'0 0.0
2018-Apr-15 06:00S 32°53' E 151°46'0 0.0
2018-Apr-15 05:27S 32°53' E 151°46'0 0.0
2018-Apr-15 05:00S 32°53' E 151°46'0 0.0
2018-Apr-15 04:30S 32°53' E 151°46'0 0.0
2018-Apr-15 04:00S 32°53' E 151°46'0 0.0
2018-Apr-15 03:30S 32°53' E 151°46'0 0.0
2018-Apr-15 03:00S 32°53' E 151°46'0 0.0
2018-Apr-15 02:24S 32°53' E 151°46'0 0.0
2018-Apr-15 02:00S 32°53' E 151°46'0 0.0
2018-Apr-15 01:27S 32°53' E 151°46'0 0.0
2018-Apr-15 01:00S 32°53' E 151°46'0 0.0
2018-Apr-15 00:30S 32°53' E 151°46'0 0.0
2018-Apr-15 00:00S 32°53' E 151°46'0 0.0
2018-Apr-14 22:51S 32°53' E 151°46'0 0.0
2018-Apr-14 22:30S 32°53' E 151°46'0 0.0
2018-Apr-14 22:00S 32°53' E 151°46'0 0.0
2018-Apr-14 21:30S 32°53' E 151°46'0 0.0
2018-Apr-14 20:51S 32°53' E 151°46'0 0.0
2018-Apr-14 20:30S 32°53' E 151°46'0 0.0
2018-Apr-14 20:00S 32°53' E 151°46'0 0.0
2018-Apr-14 19:30S 32°53' E 151°46'0 0.0
2018-Apr-14 19:00S 32°53' E 151°46'0 0.0
2018-Apr-14 18:30S 32°53' E 151°46'0 0.0
2018-Apr-14 18:00S 32°53' E 151°46'0 0.0
2018-Apr-14 17:30S 32°53' E 151°46'0 0.0
2018-Apr-14 17:00S 32°53' E 151°46'0 0.0
2018-Apr-14 16:27S 32°53' E 151°46'0 0.0
2018-Apr-14 16:00S 32°53' E 151°46'0 0.0
2018-Apr-14 15:30S 32°53' E 151°46'0 0.0
2018-Apr-14 15:00S 32°53' E 151°46'0 0.0
2018-Apr-14 14:30S 32°53' E 151°46'0 0.0
2018-Apr-14 14:00S 32°53' E 151°46'0 0.0
2018-Apr-14 13:21S 32°53' E 151°46'0 0.0
2018-Apr-14 12:54S 32°53' E 151°46'0 0.0
2018-Apr-14 12:30S 32°53' E 151°46'0 0.0
2018-Apr-14 11:57S 32°53' E 151°46'0 0.0
2018-Apr-14 11:30S 32°53' E 151°46'0 0.0
2018-Apr-14 10:57S 32°53' E 151°46'0 0.0
2018-Apr-14 10:30S 32°53' E 151°46'0 0.0
2018-Apr-14 10:00S 32°53' E 151°46'0 0.0
2018-Apr-14 09:30S 32°53' E 151°46'0 0.0
2018-Apr-14 09:00S 32°53' E 151°46'0 0.0
2018-Apr-14 08:30S 32°53' E 151°46'0 0.1
2018-Apr-14 08:00S 32°53' E 151°46'2 3.8
2018-Apr-14 07:30S 32°55' E 151°47'3 6.5
2018-Apr-14 07:00S 32°56' E 151°50'4 7.4
2018-Apr-14 06:30S 32°59' E 151°53'4 7.3
2018-Apr-14 06:00S 33°02' E 151°55'3 6.3
2018-Apr-14 05:30S 33°05' E 151°57'510.4
2018-Apr-14 05:00S 33°08' E 152°01'4 7.4
2018-Apr-14 04:30S 33°11' E 152°05'1 2.0
2018-Apr-14 03:58S 33°10' E 152°06'1 1.6
2018-Apr-14 03:28S 33°09' E 152°06'1 1.0
2018-Apr-14 02:55S 33°09' E 152°06'0 0.8
2018-Apr-14 02:28S 33°09' E 152°06'0 0.8
2018-Apr-14 01:58S 33°08' E 152°07'0 0.9
2018-Apr-14 01:28S 33°08' E 152°07'0 0.7
2018-Apr-14 00:58S 33°08' E 152°08'0 0.7
2018-Apr-14 00:28S 33°08' E 152°08'0 0.6
2018-Apr-13 23:58S 33°08' E 152°08'0 0.5
2018-Apr-13 23:28S 33°08' E 152°09'0 0.3
2018-Apr-13 22:58S 33°08' E 152°09'0 0.3
2018-Apr-13 22:28S 33°08' E 152°09'0 0.2
2018-Apr-13 21:58S 33°08' E 152°09'0 0.5
2018-Apr-13 21:28S 33°08' E 152°09'0 0.9
2018-Apr-13 21:00S 33°08' E 152°10'5 9.2
2018-Apr-13 20:30S 33°05' E 152°05'612.4
2018-Apr-13 20:00S 33°01' E 152°00'4 7.0
2018-Apr-13 19:30S 32°57' E 151°59'2 4.4
2018-Apr-13 19:00S 32°57' E 152°02'3 5.3
2018-Apr-13 18:30S 32°57' E 152°05'3 6.6
2018-Apr-13 18:01S 32°56' E 152°09'3 6.7
2018-Apr-13 17:30S 32°55' E 152°13'510.1
2018-Apr-13 17:00S 32°53' E 152°18'611.4
2018-Apr-13 16:30S 32°50' E 152°24'611.4
2018-Apr-13 16:00S 32°47' E 152°30'611.4
2018-Apr-13 15:30S 32°45' E 152°36'612.7
2018-Apr-13 15:00S 32°42' E 152°43'713.8
2018-Apr-13 14:31S 32°36' E 152°47'815.1
2018-Apr-13 14:00S 32°28' E 152°49'714.9
2018-Apr-13 13:30S 32°21' E 152°52'815.0
2018-Apr-13 13:00S 32°14' E 152°55'815.0
2018-Apr-13 12:31S 32°07' E 152°58'1515.1
2018-Apr-13 11:30S 31°53' E 153°03'19913.2
2018-Apr-12 20:27S 28°38' E 153°52'715.9
2018-Apr-12 20:00S 28°31' E 153°52'815.7
2018-Apr-12 19:30S 28°24' E 153°52'815.7
2018-Apr-12 19:00S 28°16' E 153°52'815.5
2018-Apr-12 18:30S 28°08' E 153°52'815.1
2018-Apr-12 18:00S 28°00' E 153°52'714.9
2018-Apr-12 17:30S 27°53' E 153°52'714.7
2018-Apr-12 17:00S 27°46' E 153°52'4414.7
2018-Apr-12 14:00S 27°01' E 153°52'  
Track history (hours):
 
Tides and Currents Weather Stations Pressure Air Temp Water Temp Dewpoint Dewpoint Depression Visibility Wind Speed Wind Dir Waves Ship Positions

Elettra

Last reported at 2018-Apr-17 00:44 UTC. Time now 2018-Apr-25 20:24 UTC.
Position S 27°31' E 153°52'.
Warning: this ship's position is 8 days out of date.

Length 254 m; draft 13.5 m.

Type: Cargo ship. MMSI: 371188000.

Date/timePositionNaut miles runAvg speedWind from/ knotsBaromVisibWave heightAir tempDewpointWater temp
2018-Apr-17 00:44S 27°31' E 153°52'1011.0
2018-Apr-16 23:48S 27°41' E 153°52'310.8
2018-Apr-16 23:30S 27°45' E 153°52'510.6
2018-Apr-16 23:00S 27°50' E 153°53'510.4
2018-Apr-16 22:30S 27°55' E 153°53'510.5
2018-Apr-16 22:00S 28°01' E 153°53'510.6
2018-Apr-16 21:31S 28°06' E 153°53'510.8
2018-Apr-16 21:00S 28°11' E 153°53'510.6
2018-Apr-16 20:30S 28°16' E 153°53'510.5
2018-Apr-16 20:00S 28°22' E 153°52'510.6
2018-Apr-16 19:30S 28°27' E 153°52'510.3
2018-Apr-16 19:00S 28°32' E 153°52'510.2
2018-Apr-16 18:30S 28°37' E 153°52'5 9.9
2018-Apr-16 18:00S 28°42' E 153°52'510.2
2018-Apr-16 17:29S 28°47' E 153°52'227 9.1
2018-Apr-15 16:39S 32°29' E 152°52'1 8.8
2018-Apr-15 16:30S 32°30' E 152°52'4 8.7
2018-Apr-15 16:00S 32°34' E 152°51'4 8.7
2018-Apr-15 15:30S 32°38' E 152°49'4 8.7
2018-Apr-15 15:00S 32°41' E 152°45'510.1
2018-Apr-15 14:30S 32°44' E 152°40'611.6
2018-Apr-15 14:00S 32°47' E 152°34'612.3
2018-Apr-15 13:30S 32°50' E 152°28'612.4
2018-Apr-15 13:00S 32°52' E 152°21'612.5
2018-Apr-15 12:30S 32°54' E 152°14'612.7
2018-Apr-15 12:00S 32°55' E 152°07'612.0
2018-Apr-15 11:30S 32°57' E 151°60'510.5
2018-Apr-15 11:00S 32°57' E 151°53'4 7.3
2018-Apr-15 10:29S 32°55' E 151°49'2 4.3
2018-Apr-15 10:00S 32°55' E 151°47'2 3.5
2018-Apr-15 09:30S 32°54' E 151°46'0 1.0
2018-Apr-15 09:00S 32°53' E 151°46'0 0.0
2018-Apr-15 08:27S 32°53' E 151°46'0 0.0
2018-Apr-15 08:00S 32°53' E 151°46'0 0.0
2018-Apr-15 07:30S 32°53' E 151°46'0 0.0
2018-Apr-15 07:00S 32°53' E 151°46'0 0.0
2018-Apr-15 06:30S 32°53' E 151°46'0 0.0
2018-Apr-15 06:00S 32°53' E 151°46'0 0.0
2018-Apr-15 05:27S 32°53' E 151°46'0 0.0
2018-Apr-15 05:00S 32°53' E 151°46'0 0.0
2018-Apr-15 04:30S 32°53' E 151°46'0 0.0
2018-Apr-15 04:00S 32°53' E 151°46'0 0.0
2018-Apr-15 03:30S 32°53' E 151°46'0 0.0
2018-Apr-15 03:00S 32°53' E 151°46'0 0.0
2018-Apr-15 02:24S 32°53' E 151°46'0 0.0
2018-Apr-15 02:00S 32°53' E 151°46'0 0.0
2018-Apr-15 01:27S 32°53' E 151°46'0 0.0
2018-Apr-15 01:00S 32°53' E 151°46'0 0.0
2018-Apr-15 00:30S 32°53' E 151°46'0 0.0
2018-Apr-15 00:00S 32°53' E 151°46'0 0.0
2018-Apr-14 22:51S 32°53' E 151°46'0 0.0
2018-Apr-14 22:30S 32°53' E 151°46'0 0.0
2018-Apr-14 22:00S 32°53' E 151°46'0 0.0
2018-Apr-14 21:30S 32°53' E 151°46'0 0.0
2018-Apr-14 20:51S 32°53' E 151°46'0 0.0
2018-Apr-14 20:30S 32°53' E 151°46'0 0.0
2018-Apr-14 20:00S 32°53' E 151°46'0 0.0
2018-Apr-14 19:30S 32°53' E 151°46'0 0.0
2018-Apr-14 19:00S 32°53' E 151°46'0 0.0
2018-Apr-14 18:30S 32°53' E 151°46'0 0.0
2018-Apr-14 18:00S 32°53' E 151°46'0 0.0
2018-Apr-14 17:30S 32°53' E 151°46'0 0.0
2018-Apr-14 17:00S 32°53' E 151°46'0 0.0
2018-Apr-14 16:27S 32°53' E 151°46'0 0.0
2018-Apr-14 16:00S 32°53' E 151°46'0 0.0
2018-Apr-14 15:30S 32°53' E 151°46'0 0.0
2018-Apr-14 15:00S 32°53' E 151°46'0 0.0
2018-Apr-14 14:30S 32°53' E 151°46'0 0.0
2018-Apr-14 14:00S 32°53' E 151°46'0 0.0
2018-Apr-14 13:21S 32°53' E 151°46'0 0.0
2018-Apr-14 12:54S 32°53' E 151°46'0 0.0
2018-Apr-14 12:30S 32°53' E 151°46'0 0.0
2018-Apr-14 11:57S 32°53' E 151°46'0 0.0
2018-Apr-14 11:30S 32°53' E 151°46'0 0.0
2018-Apr-14 10:57S 32°53' E 151°46'0 0.0
2018-Apr-14 10:30S 32°53' E 151°46'0 0.0
2018-Apr-14 10:00S 32°53' E 151°46'0 0.0
2018-Apr-14 09:30S 32°53' E 151°46'0 0.0
2018-Apr-14 09:00S 32°53' E 151°46'0 0.0
2018-Apr-14 08:30S 32°53' E 151°46'0 0.1
2018-Apr-14 08:00S 32°53' E 151°46'2 3.8
2018-Apr-14 07:30S 32°55' E 151°47'3 6.5
2018-Apr-14 07:00S 32°56' E 151°50'4 7.4
2018-Apr-14 06:30S 32°59' E 151°53'4 7.3
2018-Apr-14 06:00S 33°02' E 151°55'3 6.3
2018-Apr-14 05:30S 33°05' E 151°57'510.4
2018-Apr-14 05:00S 33°08' E 152°01'4 7.4
2018-Apr-14 04:30S 33°11' E 152°05'1 2.0
2018-Apr-14 03:58S 33°10' E 152°06'1 1.6
2018-Apr-14 03:28S 33°09' E 152°06'1 1.0
2018-Apr-14 02:55S 33°09' E 152°06'0 0.8
2018-Apr-14 02:28S 33°09' E 152°06'0 0.8
2018-Apr-14 01:58S 33°08' E 152°07'0 0.9
2018-Apr-14 01:28S 33°08' E 152°07'0 0.7
2018-Apr-14 00:58S 33°08' E 152°08'0 0.7
2018-Apr-14 00:28S 33°08' E 152°08'0 0.6
2018-Apr-13 23:58S 33°08' E 152°08'0 0.5
2018-Apr-13 23:28S 33°08' E 152°09'0 0.3
2018-Apr-13 22:58S 33°08' E 152°09'0 0.3
2018-Apr-13 22:28S 33°08' E 152°09'0 0.2
2018-Apr-13 21:58S 33°08' E 152°09'0 0.5
2018-Apr-13 21:28S 33°08' E 152°09'0 0.9
2018-Apr-13 21:00S 33°08' E 152°10'5 9.2
2018-Apr-13 20:30S 33°05' E 152°05'612.4
2018-Apr-13 20:00S 33°01' E 152°00'4 7.0
2018-Apr-13 19:30S 32°57' E 151°59'2 4.4
2018-Apr-13 19:00S 32°57' E 152°02'3 5.3
2018-Apr-13 18:30S 32°57' E 152°05'3 6.6
2018-Apr-13 18:01S 32°56' E 152°09'3 6.7
2018-Apr-13 17:30S 32°55' E 152°13'510.1
2018-Apr-13 17:00S 32°53' E 152°18'611.4
2018-Apr-13 16:30S 32°50' E 152°24'611.4
2018-Apr-13 16:00S 32°47' E 152°30'611.4
2018-Apr-13 15:30S 32°45' E 152°36'612.7
2018-Apr-13 15:00S 32°42' E 152°43'713.8
2018-Apr-13 14:31S 32°36' E 152°47'815.1
2018-Apr-13 14:00S 32°28' E 152°49'714.9
2018-Apr-13 13:30S 32°21' E 152°52'815.0
2018-Apr-13 13:00S 32°14' E 152°55'815.0
2018-Apr-13 12:31S 32°07' E 152°58'1515.1
2018-Apr-13 11:30S 31°53' E 153°03'19913.2
2018-Apr-12 20:27S 28°38' E 153°52'715.9
2018-Apr-12 20:00S 28°31' E 153°52'815.7
2018-Apr-12 19:30S 28°24' E 153°52'815.7
2018-Apr-12 19:00S 28°16' E 153°52'815.5
2018-Apr-12 18:30S 28°08' E 153°52'815.1
2018-Apr-12 18:00S 28°00' E 153°52'714.9
2018-Apr-12 17:30S 27°53' E 153°52'714.7
2018-Apr-12 17:00S 27°46' E 153°52'4414.7
2018-Apr-12 14:00S 27°01' E 153°52'  

Dump ship's entire track history